sensor_id;sensor_type;location;lat;lon;timestamp;temperature;humidity
2100;DHT22;1055;48.854;9.302;2023-06-14T00:01:46;17.20;73.90
2100;DHT22;1055;48.854;9.302;2023-06-14T00:04:13;17.10;74.40
2100;DHT22;1055;48.854;9.302;2023-06-14T00:06:39;17.00;75.00
2100;DHT22;1055;48.854;9.302;2023-06-14T00:09:06;16.90;74.20
2100;DHT22;1055;48.854;9.302;2023-06-14T00:11:34;16.20;77.30
2100;DHT22;1055;48.854;9.302;2023-06-14T00:13:59;16.00;81.00
2100;DHT22;1055;48.854;9.302;2023-06-14T00:16:25;16.30;80.30
2100;DHT22;1055;48.854;9.302;2023-06-14T00:18:50;16.30;78.80
2100;DHT22;1055;48.854;9.302;2023-06-14T00:21:19;16.30;77.90
2100;DHT22;1055;48.854;9.302;2023-06-14T00:23:44;16.50;76.90
2100;DHT22;1055;48.854;9.302;2023-06-14T00:26:10;15.90;77.80
2100;DHT22;1055;48.854;9.302;2023-06-14T00:28:36;15.60;78.10
2100;DHT22;1055;48.854;9.302;2023-06-14T00:31:01;15.70;79.50
2100;DHT22;1055;48.854;9.302;2023-06-14T00:33:27;16.00;78.40
2100;DHT22;1055;48.854;9.302;2023-06-14T00:35:52;16.20;76.50
2100;DHT22;1055;48.854;9.302;2023-06-14T00:38:21;16.40;75.60
2100;DHT22;1055;48.854;9.302;2023-06-14T00:40:47;16.30;75.10
2100;DHT22;1055;48.854;9.302;2023-06-14T00:43:12;16.40;75.20
2100;DHT22;1055;48.854;9.302;2023-06-14T00:45:38;16.40;74.80
2100;DHT22;1055;48.854;9.302;2023-06-14T00:48:05;16.50;75.40
2100;DHT22;1055;48.854;9.302;2023-06-14T00:50:31;16.50;77.70
2100;DHT22;1055;48.854;9.302;2023-06-14T00:53:01;16.30;79.00
2100;DHT22;1055;48.854;9.302;2023-06-14T00:55:27;16.30;79.50
2100;DHT22;1055;48.854;9.302;2023-06-14T00:57:55;16.30;80.50
2100;DHT22;1055;48.854;9.302;2023-06-14T01:00:21;16.20;81.30
2100;DHT22;1055;48.854;9.302;2023-06-14T01:02:46;16.30;79.80
2100;DHT22;1055;48.854;9.302;2023-06-14T01:05:14;16.10;81.00
2100;DHT22;1055;48.854;9.302;2023-06-14T01:10:47;16.00;79.10
2100;DHT22;1055;48.854;9.302;2023-06-14T01:13:29;16.00;79.80
2100;DHT22;1055;48.854;9.302;2023-06-14T01:15:57;16.10;79.90
2100;DHT22;1055;48.854;9.302;2023-06-14T01:18:24;16.10;79.80
2100;DHT22;1055;48.854;9.302;2023-06-14T01:20:51;16.10;79.50
2100;DHT22;1055;48.854;9.302;2023-06-14T01:23:21;16.00;79.70
2100;DHT22;1055;48.854;9.302;2023-06-14T01:25:47;15.90;80.00
2100;DHT22;1055;48.854;9.302;2023-06-14T01:28:14;16.00;80.10
2100;DHT22;1055;48.854;9.302;2023-06-14T01:30:44;16.00;82.40
2100;DHT22;1055;48.854;9.302;2023-06-14T01:33:21;16.10;82.70
2100;DHT22;1055;48.854;9.302;2023-06-14T01:35:49;16.10;82.40
2100;DHT22;1055;48.854;9.302;2023-06-14T01:38:21;16.10;80.20
2100;DHT22;1055;48.854;9.302;2023-06-14T01:40:48;15.90;81.10
2100;DHT22;1055;48.854;9.302;2023-06-14T01:43:14;15.90;81.70
2100;DHT22;1055;48.854;9.302;2023-06-14T01:45:42;15.90;82.30
2100;DHT22;1055;48.854;9.302;2023-06-14T01:48:08;16.00;82.30
2100;DHT22;1055;48.854;9.302;2023-06-14T01:50:34;15.80;81.30
2100;DHT22;1055;48.854;9.302;2023-06-14T01:53:00;15.70;81.50
2100;DHT22;1055;48.854;9.302;2023-06-14T01:55:26;15.70;81.60
2100;DHT22;1055;48.854;9.302;2023-06-14T01:57:52;15.60;82.50
2100;DHT22;1055;48.854;9.302;2023-06-14T02:00:18;15.60;81.80
2100;DHT22;1055;48.854;9.302;2023-06-14T02:02:45;15.70;82.40
2100;DHT22;1055;48.854;9.302;2023-06-14T02:05:11;15.60;82.60
2100;DHT22;1055;48.854;9.302;2023-06-14T02:07:37;15.60;84.90
2100;DHT22;1055;48.854;9.302;2023-06-14T02:10:06;15.50;84.50
2100;DHT22;1055;48.854;9.302;2023-06-14T02:12:31;15.60;86.80
2100;DHT22;1055;48.854;9.302;2023-06-14T02:14:57;15.60;86.20
2100;DHT22;1055;48.854;9.302;2023-06-14T02:17:23;15.70;86.20
2100;DHT22;1055;48.854;9.302;2023-06-14T02:19:49;15.70;85.40
2100;DHT22;1055;48.854;9.302;2023-06-14T02:22:16;15.70;84.60
2100;DHT22;1055;48.854;9.302;2023-06-14T02:24:42;15.60;83.90
2100;DHT22;1055;48.854;9.302;2023-06-14T02:27:08;15.50;83.80
2100;DHT22;1055;48.854;9.302;2023-06-14T02:29:36;15.60;82.90
2100;DHT22;1055;48.854;9.302;2023-06-14T02:32:02;15.50;83.40
2100;DHT22;1055;48.854;9.302;2023-06-14T02:34:28;15.20;84.10
2100;DHT22;1055;48.854;9.302;2023-06-14T02:36:53;15.40;84.50
2100;DHT22;1055;48.854;9.302;2023-06-14T02:39:20;15.40;85.00
2100;DHT22;1055;48.854;9.302;2023-06-14T02:41:49;15.30;85.80
2100;DHT22;1055;48.854;9.302;2023-06-14T02:44:17;15.40;86.70
2100;DHT22;1055;48.854;9.302;2023-06-14T02:46:43;15.40;87.50
2100;DHT22;1055;48.854;9.302;2023-06-14T02:49:10;15.50;89.40
2100;DHT22;1055;48.854;9.302;2023-06-14T02:51:35;15.20;90.50
2100;DHT22;1055;48.854;9.302;2023-06-14T02:54:01;14.70;92.20
2100;DHT22;1055;48.854;9.302;2023-06-14T02:56:27;14.90;94.70
2100;DHT22;1055;48.854;9.302;2023-06-14T02:58:53;14.90;94.50
2100;DHT22;1055;48.854;9.302;2023-06-14T03:01:19;15.00;95.00
2100;DHT22;1055;48.854;9.302;2023-06-14T03:03:46;15.10;95.50
2100;DHT22;1055;48.854;9.302;2023-06-14T03:06:11;14.50;98.40
2100;DHT22;1055;48.854;9.302;2023-06-14T03:08:40;14.40;99.90
2100;DHT22;1055;48.854;9.302;2023-06-14T03:11:07;14.50;99.90
2100;DHT22;1055;48.854;9.302;2023-06-14T03:13:34;14.60;99.90
2100;DHT22;1055;48.854;9.302;2023-06-14T03:16:00;14.60;99.60
2100;DHT22;1055;48.854;9.302;2023-06-14T03:18:32;14.70;99.90
2100;DHT22;1055;48.854;9.302;2023-06-14T03:21:01;14.60;99.90
2100;DHT22;1055;48.854;9.302;2023-06-14T03:23:27;14.70;99.90
2100;DHT22;1055;48.854;9.302;2023-06-14T03:25:52;14.80;99.90
2100;DHT22;1055;48.854;9.302;2023-06-14T03:28:18;14.80;99.90
2100;DHT22;1055;48.854;9.302;2023-06-14T03:30:44;14.80;99.30
2100;DHT22;1055;48.854;9.302;2023-06-14T03:33:09;14.80;99.20
2100;DHT22;1055;48.854;9.302;2023-06-14T03:35:36;14.80;99.90
2100;DHT22;1055;48.854;9.302;2023-06-14T03:38:01;14.80;99.90
2100;DHT22;1055;48.854;9.302;2023-06-14T03:40:29;14.90;99.90
2100;DHT22;1055;48.854;9.302;2023-06-14T03:42:54;14.90;99.90
2100;DHT22;1055;48.854;9.302;2023-06-14T03:45:21;14.80;99.90
2100;DHT22;1055;48.854;9.302;2023-06-14T03:47:47;14.90;99.90
2100;DHT22;1055;48.854;9.302;2023-06-14T03:50:13;14.70;99.90
2100;DHT22;1055;48.854;9.302;2023-06-14T03:52:38;14.40;99.90
2100;DHT22;1055;48.854;9.302;2023-06-14T03:55:05;14.40;99.90
2100;DHT22;1055;48.854;9.302;2023-06-14T03:57:30;14.40;99.90
2100;DHT22;1055;48.854;9.302;2023-06-14T03:59:56;14.60;99.90
2100;DHT22;1055;48.854;9.302;2023-06-14T04:02:22;14.70;99.90
2100;DHT22;1055;48.854;9.302;2023-06-14T04:04:48;14.40;99.90
2100;DHT22;1055;48.854;9.302;2023-06-14T04:07:15;14.50;99.90
2100;DHT22;1055;48.854;9.302;2023-06-14T04:09:44;13.90;99.90
2100;DHT22;1055;48.854;9.302;2023-06-14T04:12:10;13.30;99.90
2100;DHT22;1055;48.854;9.302;2023-06-14T04:14:37;13.10;99.90
2100;DHT22;1055;48.854;9.302;2023-06-14T04:17:03;13.00;99.90
2100;DHT22;1055;48.854;9.302;2023-06-14T04:19:29;13.10;99.90
2100;DHT22;1055;48.854;9.302;2023-06-14T04:21:55;13.40;99.90
2100;DHT22;1055;48.854;9.302;2023-06-14T04:24:21;13.70;99.90
2100;DHT22;1055;48.854;9.302;2023-06-14T04:26:46;14.10;99.90
2100;DHT22;1055;48.854;9.302;2023-06-14T04:29:17;14.30;99.90
2100;DHT22;1055;48.854;9.302;2023-06-14T04:31:46;14.50;99.90
2100;DHT22;1055;48.854;9.302;2023-06-14T04:34:12;14.60;99.90
2100;DHT22;1055;48.854;9.302;2023-06-14T04:36:44;14.80;99.90
2100;DHT22;1055;48.854;9.302;2023-06-14T04:39:19;14.90;99.90
2100;DHT22;1055;48.854;9.302;2023-06-14T04:41:46;15.00;99.90
2100;DHT22;1055;48.854;9.302;2023-06-14T04:44:12;15.10;99.90
2100;DHT22;1055;48.854;9.302;2023-06-14T04:46:38;15.20;99.90
2100;DHT22;1055;48.854;9.302;2023-06-14T04:49:14;15.00;99.90
2100;DHT22;1055;48.854;9.302;2023-06-14T04:51:41;15.30;99.90
2100;DHT22;1055;48.854;9.302;2023-06-14T04:54:08;15.50;99.90
2100;DHT22;1055;48.854;9.302;2023-06-14T04:56:37;15.20;99.90
2100;DHT22;1055;48.854;9.302;2023-06-14T04:59:03;14.80;99.90
2100;DHT22;1055;48.854;9.302;2023-06-14T05:01:32;14.60;99.90
2100;DHT22;1055;48.854;9.302;2023-06-14T05:03:59;14.50;99.90
2100;DHT22;1055;48.854;9.302;2023-06-14T05:06:24;14.80;99.90
2100;DHT22;1055;48.854;9.302;2023-06-14T05:08:51;14.70;99.90
2100;DHT22;1055;48.854;9.302;2023-06-14T05:11:17;14.70;99.90
2100;DHT22;1055;48.854;9.302;2023-06-14T05:13:43;14.70;99.90
2100;DHT22;1055;48.854;9.302;2023-06-14T05:16:13;14.70;99.90
2100;DHT22;1055;48.854;9.302;2023-06-14T05:18:41;14.80;99.90
2100;DHT22;1055;48.854;9.302;2023-06-14T05:21:06;15.00;99.90
2100;DHT22;1055;48.854;9.302;2023-06-14T05:23:32;15.30;99.90
2100;DHT22;1055;48.854;9.302;2023-06-14T05:25:58;15.60;99.90
2100;DHT22;1055;48.854;9.302;2023-06-14T05:28:24;15.80;99.90
2100;DHT22;1055;48.854;9.302;2023-06-14T05:30:49;16.00;99.90
2100;DHT22;1055;48.854;9.302;2023-06-14T05:33:16;16.10;99.90
2100;DHT22;1055;48.854;9.302;2023-06-14T05:35:42;16.10;99.90
2100;DHT22;1055;48.854;9.302;2023-06-14T05:38:07;16.20;99.90
2100;DHT22;1055;48.854;9.302;2023-06-14T05:40:33;16.50;99.90
2100;DHT22;1055;48.854;9.302;2023-06-14T05:42:59;16.60;99.90
2100;DHT22;1055;48.854;9.302;2023-06-14T05:45:25;16.60;99.90
2100;DHT22;1055;48.854;9.302;2023-06-14T05:47:51;16.50;99.90
2100;DHT22;1055;48.854;9.302;2023-06-14T05:50:17;16.70;99.90
2100;DHT22;1055;48.854;9.302;2023-06-14T05:52:43;16.60;99.90
2100;DHT22;1055;48.854;9.302;2023-06-14T05:55:09;16.70;99.90
2100;DHT22;1055;48.854;9.302;2023-06-14T05:57:38;16.90;99.90
2100;DHT22;1055;48.854;9.302;2023-06-14T06:00:04;16.90;99.90
2100;DHT22;1055;48.854;9.302;2023-06-14T06:02:36;17.10;99.90
2100;DHT22;1055;48.854;9.302;2023-06-14T06:05:02;17.20;99.90
2100;DHT22;1055;48.854;9.302;2023-06-14T06:07:28;16.90;99.90
2100;DHT22;1055;48.854;9.302;2023-06-14T06:09:53;17.20;99.90
2100;DHT22;1055;48.854;9.302;2023-06-14T06:12:20;17.30;99.90
2100;DHT22;1055;48.854;9.302;2023-06-14T06:14:46;17.50;99.90
2100;DHT22;1055;48.854;9.302;2023-06-14T06:17:11;17.40;99.90
2100;DHT22;1055;48.854;9.302;2023-06-14T06:19:37;17.50;99.90
2100;DHT22;1055;48.854;9.302;2023-06-14T06:22:03;17.70;99.90
2100;DHT22;1055;48.854;9.302;2023-06-14T06:24:31;17.80;99.90
2100;DHT22;1055;48.854;9.302;2023-06-14T06:26:57;17.80;99.10
2100;DHT22;1055;48.854;9.302;2023-06-14T06:29:23;17.90;98.70
2100;DHT22;1055;48.854;9.302;2023-06-14T06:31:48;17.90;98.30
2100;DHT22;1055;48.854;9.302;2023-06-14T06:34:14;17.90;96.00
2100;DHT22;1055;48.854;9.302;2023-06-14T06:36:40;17.50;96.00
2100;DHT22;1055;48.854;9.302;2023-06-14T06:39:06;17.70;97.70
2100;DHT22;1055;48.854;9.302;2023-06-14T06:41:38;17.90;97.90
2100;DHT22;1055;48.854;9.302;2023-06-14T06:44:05;17.90;94.30
2100;DHT22;1055;48.854;9.302;2023-06-14T06:46:32;18.00;95.10
2100;DHT22;1055;48.854;9.302;2023-06-14T06:48:58;18.00;95.70
2100;DHT22;1055;48.854;9.302;2023-06-14T06:51:23;18.00;95.80
2100;DHT22;1055;48.854;9.302;2023-06-14T06:53:55;18.10;95.10
2100;DHT22;1055;48.854;9.302;2023-06-14T06:56:21;18.00;95.10
2100;DHT22;1055;48.854;9.302;2023-06-14T06:58:50;17.90;95.90
2100;DHT22;1055;48.854;9.302;2023-06-14T07:01:17;17.90;95.80
2100;DHT22;1055;48.854;9.302;2023-06-14T07:03:43;18.00;95.80
2100;DHT22;1055;48.854;9.302;2023-06-14T07:06:08;18.00;95.20
2100;DHT22;1055;48.854;9.302;2023-06-14T07:08:34;17.90;95.50
2100;DHT22;1055;48.854;9.302;2023-06-14T07:11:01;18.10;95.30
2100;DHT22;1055;48.854;9.302;2023-06-14T07:13:27;18.10;96.10
2100;DHT22;1055;48.854;9.302;2023-06-14T07:15:59;18.30;96.20
2100;DHT22;1055;48.854;9.302;2023-06-14T07:18:25;18.30;96.60
2100;DHT22;1055;48.854;9.302;2023-06-14T07:20:52;18.40;96.70
2100;DHT22;1055;48.854;9.302;2023-06-14T07:23:19;18.30;96.20
2100;DHT22;1055;48.854;9.302;2023-06-14T07:25:45;18.50;96.40
2100;DHT22;1055;48.854;9.302;2023-06-14T07:28:11;18.60;96.10
2100;DHT22;1055;48.854;9.302;2023-06-14T07:30:36;18.70;95.70
2100;DHT22;1055;48.854;9.302;2023-06-14T07:33:02;18.80;95.60
2100;DHT22;1055;48.854;9.302;2023-06-14T07:35:28;18.90;95.50
2100;DHT22;1055;48.854;9.302;2023-06-14T07:37:53;18.90;95.20
2100;DHT22;1055;48.854;9.302;2023-06-14T07:40:20;19.10;95.80
2100;DHT22;1055;48.854;9.302;2023-06-14T07:42:45;19.20;93.90
2100;DHT22;1055;48.854;9.302;2023-06-14T07:45:13;19.10;93.70
2100;DHT22;1055;48.854;9.302;2023-06-14T07:47:39;19.30;92.50
2100;DHT22;1055;48.854;9.302;2023-06-14T07:50:05;19.40;91.70
2100;DHT22;1055;48.854;9.302;2023-06-14T07:52:31;19.40;91.50
2100;DHT22;1055;48.854;9.302;2023-06-14T07:54:57;19.50;90.90
2100;DHT22;1055;48.854;9.302;2023-06-14T07:57:23;19.50;90.40
2100;DHT22;1055;48.854;9.302;2023-06-14T07:59:49;19.70;90.70
2100;DHT22;1055;48.854;9.302;2023-06-14T08:02:15;19.70;90.40
2100;DHT22;1055;48.854;9.302;2023-06-14T08:04:41;19.80;90.50
2100;DHT22;1055;48.854;9.302;2023-06-14T08:07:07;19.90;90.60
2100;DHT22;1055;48.854;9.302;2023-06-14T08:09:33;20.00;88.10
2100;DHT22;1055;48.854;9.302;2023-06-14T08:11:59;20.00;86.50
2100;DHT22;1055;48.854;9.302;2023-06-14T08:14:25;20.10;88.80
2100;DHT22;1055;48.854;9.302;2023-06-14T08:16:51;20.20;89.80
2100;DHT22;1055;48.854;9.302;2023-06-14T08:19:16;20.30;87.90
2100;DHT22;1055;48.854;9.302;2023-06-14T08:21:43;20.40;88.10
2100;DHT22;1055;48.854;9.302;2023-06-14T08:24:12;20.50;88.80
2100;DHT22;1055;48.854;9.302;2023-06-14T08:26:38;20.60;86.80
2100;DHT22;1055;48.854;9.302;2023-06-14T08:29:04;20.50;86.80
2100;DHT22;1055;48.854;9.302;2023-06-14T08:31:32;20.70;87.00
2100;DHT22;1055;48.854;9.302;2023-06-14T08:33:58;20.60;87.30
2100;DHT22;1055;48.854;9.302;2023-06-14T08:36:24;20.70;85.70
2100;DHT22;1055;48.854;9.302;2023-06-14T08:38:49;20.70;87.70
2100;DHT22;1055;48.854;9.302;2023-06-14T08:41:20;20.80;87.30
2100;DHT22;1055;48.854;9.302;2023-06-14T08:43:47;20.90;86.90
2100;DHT22;1055;48.854;9.302;2023-06-14T08:46:14;21.00;86.60
2100;DHT22;1055;48.854;9.302;2023-06-14T08:48:49;21.00;85.30
2100;DHT22;1055;48.854;9.302;2023-06-14T08:51:18;21.10;85.10
2100;DHT22;1055;48.854;9.302;2023-06-14T08:53:44;21.20;84.60
2100;DHT22;1055;48.854;9.302;2023-06-14T08:56:11;21.30;83.90
2100;DHT22;1055;48.854;9.302;2023-06-14T08:58:42;21.40;83.90
2100;DHT22;1055;48.854;9.302;2023-06-14T09:01:11;21.50;81.90
2100;DHT22;1055;48.854;9.302;2023-06-14T09:03:42;21.60;82.80
2100;DHT22;1055;48.854;9.302;2023-06-14T09:06:09;21.60;80.10
2100;DHT22;1055;48.854;9.302;2023-06-14T09:08:40;21.50;79.20
2100;DHT22;1055;48.854;9.302;2023-06-14T09:11:07;21.60;78.70
2100;DHT22;1055;48.854;9.302;2023-06-14T09:13:33;21.60;79.30
2100;DHT22;1055;48.854;9.302;2023-06-14T09:15:59;21.80;80.70
2100;DHT22;1055;48.854;9.302;2023-06-14T09:18:55;21.90;78.10
2100;DHT22;1055;48.854;9.302;2023-06-14T09:21:20;21.90;79.10
2100;DHT22;1055;48.854;9.302;2023-06-14T09:23:47;22.00;78.90
2100;DHT22;1055;48.854;9.302;2023-06-14T09:26:15;22.20;77.70
2100;DHT22;1055;48.854;9.302;2023-06-14T09:28:45;22.20;75.70
2100;DHT22;1055;48.854;9.302;2023-06-14T09:31:12;22.20;78.00
2100;DHT22;1055;48.854;9.302;2023-06-14T09:33:38;22.30;76.60
2100;DHT22;1055;48.854;9.302;2023-06-14T09:36:08;22.40;77.30
2100;DHT22;1055;48.854;9.302;2023-06-14T09:38:34;22.50;74.70
2100;DHT22;1055;48.854;9.302;2023-06-14T09:41:04;22.60;72.50
2100;DHT22;1055;48.854;9.302;2023-06-14T09:43:30;22.80;72.10
2100;DHT22;1055;48.854;9.302;2023-06-14T09:46:00;22.70;68.60
2100;DHT22;1055;48.854;9.302;2023-06-14T09:48:26;22.70;69.70
2100;DHT22;1055;48.854;9.302;2023-06-14T09:50:52;22.90;69.30
2100;DHT22;1055;48.854;9.302;2023-06-14T09:53:21;23.00;69.10
2100;DHT22;1055;48.854;9.302;2023-06-14T09:55:51;23.10;66.80
2100;DHT22;1055;48.854;9.302;2023-06-14T09:58:19;23.20;67.00
2100;DHT22;1055;48.854;9.302;2023-06-14T10:00:47;23.30;65.70
2100;DHT22;1055;48.854;9.302;2023-06-14T10:03:22;23.30;61.80
2100;DHT22;1055;48.854;9.302;2023-06-14T10:05:50;23.30;63.00
2100;DHT22;1055;48.854;9.302;2023-06-14T10:08:18;23.20;63.90
2100;DHT22;1055;48.854;9.302;2023-06-14T10:10:44;23.50;63.10
2100;DHT22;1055;48.854;9.302;2023-06-14T10:13:11;23.70;62.20
2100;DHT22;1055;48.854;9.302;2023-06-14T10:15:54;23.80;63.00
2100;DHT22;1055;48.854;9.302;2023-06-14T10:21:28;23.90;59.60
2100;DHT22;1055;48.854;9.302;2023-06-14T10:24:01;24.00;59.10
2100;DHT22;1055;48.854;9.302;2023-06-14T10:26:28;23.70;58.00
2100;DHT22;1055;48.854;9.302;2023-06-14T10:29:07;23.90;57.90
2100;DHT22;1055;48.854;9.302;2023-06-14T10:31:50;24.00;59.20
2100;DHT22;1055;48.854;9.302;2023-06-14T10:39:26;23.80;59.10
2100;DHT22;1055;48.854;9.302;2023-06-14T10:41:55;23.80;59.30
2100;DHT22;1055;48.854;9.302;2023-06-14T10:46:47;23.60;59.60
2100;DHT22;1055;48.854;9.302;2023-06-14T10:49:16;23.70;59.40
2100;DHT22;1055;48.854;9.302;2023-06-14T10:51:49;23.90;58.60
2100;DHT22;1055;48.854;9.302;2023-06-14T10:54:16;24.00;58.30
2100;DHT22;1055;48.854;9.302;2023-06-14T10:56:52;23.80;58.80
2100;DHT22;1055;48.854;9.302;2023-06-14T10:59:20;23.70;58.80
2100;DHT22;1055;48.854;9.302;2023-06-14T11:04:50;23.80;57.30
2100;DHT22;1055;48.854;9.302;2023-06-14T11:12:47;24.20;58.10
2100;DHT22;1055;48.854;9.302;2023-06-14T11:15:13;24.30;56.90
2100;DHT22;1055;48.854;9.302;2023-06-14T11:17:39;24.20;56.90
2100;DHT22;1055;48.854;9.302;2023-06-14T11:20:10;24.40;55.90
2100;DHT22;1055;48.854;9.302;2023-06-14T11:22:43;24.50;55.80
2100;DHT22;1055;48.854;9.302;2023-06-14T11:25:13;24.00;55.00
2100;DHT22;1055;48.854;9.302;2023-06-14T11:27:39;24.30;55.80
2100;DHT22;1055;48.854;9.302;2023-06-14T11:30:07;24.20;56.30
2100;DHT22;1055;48.854;9.302;2023-06-14T11:32:33;24.50;57.30
2100;DHT22;1055;48.854;9.302;2023-06-14T11:34:59;24.70;57.30
2100;DHT22;1055;48.854;9.302;2023-06-14T11:37:28;24.50;56.20
2100;DHT22;1055;48.854;9.302;2023-06-14T11:40:02;24.40;57.00
2100;DHT22;1055;48.854;9.302;2023-06-14T11:42:30;24.60;56.70
2100;DHT22;1055;48.854;9.302;2023-06-14T11:44:56;24.80;56.70
2100;DHT22;1055;48.854;9.302;2023-06-14T11:47:24;24.80;56.40
2100;DHT22;1055;48.854;9.302;2023-06-14T11:49:50;25.00;56.10
2100;DHT22;1055;48.854;9.302;2023-06-14T11:52:17;24.80;55.70
2100;DHT22;1055;48.854;9.302;2023-06-14T11:54:43;24.80;56.20
2100;DHT22;1055;48.854;9.302;2023-06-14T11:57:09;24.80;57.00
2100;DHT22;1055;48.854;9.302;2023-06-14T11:59:42;24.60;55.60
2100;DHT22;1055;48.854;9.302;2023-06-14T12:02:10;24.90;56.00
2100;DHT22;1055;48.854;9.302;2023-06-14T12:04:41;25.20;55.60
2100;DHT22;1055;48.854;9.302;2023-06-14T12:07:10;25.30;57.10
2100;DHT22;1055;48.854;9.302;2023-06-14T12:09:39;25.50;54.50
2100;DHT22;1055;48.854;9.302;2023-06-14T12:12:05;25.50;54.30
2100;DHT22;1055;48.854;9.302;2023-06-14T12:14:31;25.90;53.70
2100;DHT22;1055;48.854;9.302;2023-06-14T12:17:07;26.10;52.80
2100;DHT22;1055;48.854;9.302;2023-06-14T12:19:41;25.40;53.90
2100;DHT22;1055;48.854;9.302;2023-06-14T12:22:09;25.70;52.70
2100;DHT22;1055;48.854;9.302;2023-06-14T12:24:35;26.10;52.80
2100;DHT22;1055;48.854;9.302;2023-06-14T12:27:01;26.30;53.00
2100;DHT22;1055;48.854;9.302;2023-06-14T12:29:31;26.30;53.40
2100;DHT22;1055;48.854;9.302;2023-06-14T12:31:57;26.60;53.20
2100;DHT22;1055;48.854;9.302;2023-06-14T12:34:26;26.90;50.00
2100;DHT22;1055;48.854;9.302;2023-06-14T12:36:56;26.50;50.40
2100;DHT22;1055;48.854;9.302;2023-06-14T12:39:22;26.70;51.00
2100;DHT22;1055;48.854;9.302;2023-06-14T12:41:48;26.70;52.40
2100;DHT22;1055;48.854;9.302;2023-06-14T12:44:15;26.30;51.30
2100;DHT22;1055;48.854;9.302;2023-06-14T12:46:42;26.60;51.80
2100;DHT22;1055;48.854;9.302;2023-06-14T12:49:11;26.70;52.70
2100;DHT22;1055;48.854;9.302;2023-06-14T12:51:38;26.70;53.10
2100;DHT22;1055;48.854;9.302;2023-06-14T12:54:04;27.00;51.60
2100;DHT22;1055;48.854;9.302;2023-06-14T12:56:30;27.10;51.50
2100;DHT22;1055;48.854;9.302;2023-06-14T12:58:55;27.00;51.80
2100;DHT22;1055;48.854;9.302;2023-06-14T13:01:21;27.20;50.90
2100;DHT22;1055;48.854;9.302;2023-06-14T13:03:47;27.20;50.50
2100;DHT22;1055;48.854;9.302;2023-06-14T13:06:13;27.30;51.00
2100;DHT22;1055;48.854;9.302;2023-06-14T13:08:39;27.70;50.70
2100;DHT22;1055;48.854;9.302;2023-06-14T13:11:05;28.10;50.90
2100;DHT22;1055;48.854;9.302;2023-06-14T13:13:30;27.80;52.00
2100;DHT22;1055;48.854;9.302;2023-06-14T13:15:56;27.30;51.70
2100;DHT22;1055;48.854;9.302;2023-06-14T13:18:21;27.00;51.90
2100;DHT22;1055;48.854;9.302;2023-06-14T13:20:47;26.50;53.20
2100;DHT22;1055;48.854;9.302;2023-06-14T13:23:13;26.80;53.10
2100;DHT22;1055;48.854;9.302;2023-06-14T13:25:40;26.90;53.40
2100;DHT22;1055;48.854;9.302;2023-06-14T13:28:06;26.80;52.60
2100;DHT22;1055;48.854;9.302;2023-06-14T13:30:32;26.70;52.30
2100;DHT22;1055;48.854;9.302;2023-06-14T13:32:59;26.30;52.40
2100;DHT22;1055;48.854;9.302;2023-06-14T13:35:25;25.50;53.50
2100;DHT22;1055;48.854;9.302;2023-06-14T13:37:51;25.90;53.80
2100;DHT22;1055;48.854;9.302;2023-06-14T13:40:17;26.20;53.80
2100;DHT22;1055;48.854;9.302;2023-06-14T13:42:42;25.80;54.00
2100;DHT22;1055;48.854;9.302;2023-06-14T13:45:09;26.20;53.40
2100;DHT22;1055;48.854;9.302;2023-06-14T13:47:35;26.10;53.70
2100;DHT22;1055;48.854;9.302;2023-06-14T13:50:02;26.30;53.10
2100;DHT22;1055;48.854;9.302;2023-06-14T13:52:27;26.50;53.90
2100;DHT22;1055;48.854;9.302;2023-06-14T13:54:53;27.00;52.00
2100;DHT22;1055;48.854;9.302;2023-06-14T13:57:19;27.50;51.20
2100;DHT22;1055;48.854;9.302;2023-06-14T13:59:45;27.90;50.80
2100;DHT22;1055;48.854;9.302;2023-06-14T14:02:11;28.20;50.50
2100;DHT22;1055;48.854;9.302;2023-06-14T14:04:38;27.80;49.50
2100;DHT22;1055;48.854;9.302;2023-06-14T14:07:07;28.00;50.40
2100;DHT22;1055;48.854;9.302;2023-06-14T14:09:34;28.00;50.50
2100;DHT22;1055;48.854;9.302;2023-06-14T14:12:05;28.10;50.50
2100;DHT22;1055;48.854;9.302;2023-06-14T14:14:33;28.10;49.60
2100;DHT22;1055;48.854;9.302;2023-06-14T14:17:01;28.60;49.40
2100;DHT22;1055;48.854;9.302;2023-06-14T14:19:28;29.20;49.10
2100;DHT22;1055;48.854;9.302;2023-06-14T14:21:54;27.60;49.10
2100;DHT22;1055;48.854;9.302;2023-06-14T14:24:20;27.90;49.90
2100;DHT22;1055;48.854;9.302;2023-06-14T14:26:45;28.60;49.20
2100;DHT22;1055;48.854;9.302;2023-06-14T14:29:14;29.00;49.20
2100;DHT22;1055;48.854;9.302;2023-06-14T14:31:40;29.20;49.30
2100;DHT22;1055;48.854;9.302;2023-06-14T14:34:05;28.50;48.90
2100;DHT22;1055;48.854;9.302;2023-06-14T14:36:31;29.20;48.70
2100;DHT22;1055;48.854;9.302;2023-06-14T14:38:59;28.80;48.50
2100;DHT22;1055;48.854;9.302;2023-06-14T14:41:27;28.70;48.30
2100;DHT22;1055;48.854;9.302;2023-06-14T14:43:52;28.50;49.10
2100;DHT22;1055;48.854;9.302;2023-06-14T14:46:18;28.50;49.00
2100;DHT22;1055;48.854;9.302;2023-06-14T14:48:44;28.20;50.30
2100;DHT22;1055;48.854;9.302;2023-06-14T14:51:09;28.30;51.50
2100;DHT22;1055;48.854;9.302;2023-06-14T14:53:35;29.10;49.50
2100;DHT22;1055;48.854;9.302;2023-06-14T14:56:01;29.70;47.90
2100;DHT22;1055;48.854;9.302;2023-06-14T14:58:26;30.10;47.20
2100;DHT22;1055;48.854;9.302;2023-06-14T15:00:52;30.50;46.90
2100;DHT22;1055;48.854;9.302;2023-06-14T15:03:18;30.80;46.20
2100;DHT22;1055;48.854;9.302;2023-06-14T15:05:44;30.70;46.50
2100;DHT22;1055;48.854;9.302;2023-06-14T15:08:09;30.30;46.40
2100;DHT22;1055;48.854;9.302;2023-06-14T15:10:39;30.20;46.50
2100;DHT22;1055;48.854;9.302;2023-06-14T15:13:08;30.60;45.60
2100;DHT22;1055;48.854;9.302;2023-06-14T15:15:35;31.20;44.90
2100;DHT22;1055;48.854;9.302;2023-06-14T15:18:01;31.00;45.20
2100;DHT22;1055;48.854;9.302;2023-06-14T15:20:27;31.50;45.50
2100;DHT22;1055;48.854;9.302;2023-06-14T15:22:53;31.00;43.60
2100;DHT22;1055;48.854;9.302;2023-06-14T15:25:21;30.90;44.50
2100;DHT22;1055;48.854;9.302;2023-06-14T15:27:46;30.90;45.00
2100;DHT22;1055;48.854;9.302;2023-06-14T15:30:12;31.20;44.90
2100;DHT22;1055;48.854;9.302;2023-06-14T15:32:38;28.70;43.70
2100;DHT22;1055;48.854;9.302;2023-06-14T15:35:04;29.90;46.50
2100;DHT22;1055;48.854;9.302;2023-06-14T15:37:30;29.90;46.00
2100;DHT22;1055;48.854;9.302;2023-06-14T15:39:56;29.40;47.10
2100;DHT22;1055;48.854;9.302;2023-06-14T15:42:21;30.10;46.00
2100;DHT22;1055;48.854;9.302;2023-06-14T15:44:47;30.50;45.80
2100;DHT22;1055;48.854;9.302;2023-06-14T15:47:13;30.80;45.00
2100;DHT22;1055;48.854;9.302;2023-06-14T15:49:39;30.40;44.50
2100;DHT22;1055;48.854;9.302;2023-06-14T15:52:05;30.40;44.80
2100;DHT22;1055;48.854;9.302;2023-06-14T15:54:31;29.30;45.30
2100;DHT22;1055;48.854;9.302;2023-06-14T15:56:57;29.90;44.60
2100;DHT22;1055;48.854;9.302;2023-06-14T15:59:24;29.10;45.10
2100;DHT22;1055;48.854;9.302;2023-06-14T16:01:49;29.80;44.90
2100;DHT22;1055;48.854;9.302;2023-06-14T16:04:15;30.20;45.20
2100;DHT22;1055;48.854;9.302;2023-06-14T16:06:41;30.30;45.60
2100;DHT22;1055;48.854;9.302;2023-06-14T16:09:06;30.60;45.50
2100;DHT22;1055;48.854;9.302;2023-06-14T16:11:32;30.70;44.30
2100;DHT22;1055;48.854;9.302;2023-06-14T16:13:57;30.10;45.00
2100;DHT22;1055;48.854;9.302;2023-06-14T16:16:23;29.90;45.00
2100;DHT22;1055;48.854;9.302;2023-06-14T16:18:49;29.50;45.10
2100;DHT22;1055;48.854;9.302;2023-06-14T16:21:15;29.10;45.90
2100;DHT22;1055;48.854;9.302;2023-06-14T16:23:41;28.50;47.10